createdAt,value
2023-03-22T00:00:53.019Z,29.84
2023-03-22T04:52:32.132Z,28.84
2023-03-22T04:56:32.208Z,28.80
2023-03-22T05:00:32.203Z,28.77
2023-03-22T05:04:32.248Z,28.78
2023-03-22T05:08:32.268Z,28.76
2023-03-22T05:12:32.354Z,28.73
2023-03-22T05:16:32.407Z,28.73
2023-03-22T05:20:32.407Z,28.72
2023-03-22T05:24:32.457Z,28.70
2023-03-22T05:28:32.542Z,28.67
2023-03-22T05:32:32.573Z,28.70
2023-03-22T05:36:32.654Z,28.65
2023-03-22T05:40:32.698Z,28.67
2023-03-22T05:44:32.817Z,28.62
2023-03-22T05:48:32.861Z,28.57
2023-03-22T05:52:32.884Z,28.53
2023-03-22T05:56:32.899Z,28.52
2023-03-22T06:00:33.110Z,28.50
2023-03-22T06:04:33.061Z,28.43
2023-03-22T06:08:33.128Z,28.38
2023-03-22T06:12:33.224Z,28.35
2023-03-22T06:16:33.699Z,28.37
2023-03-22T06:20:33.393Z,28.36
2023-03-22T06:24:33.637Z,28.36
2023-03-22T06:28:34.145Z,28.40
2023-03-22T06:32:33.856Z,28.37
2023-03-22T06:36:34.144Z,28.43
2023-03-22T06:40:34.130Z,28.53
2023-03-22T06:44:34.636Z,28.57
2023-03-22T06:48:34.194Z,28.78
2023-03-22T06:52:34.653Z,28.93
2023-03-22T07:04:38.486Z,30.20
2023-03-22T07:36:36.718Z,33.25
2023-03-22T07:52:36.193Z,33.45
2023-03-22T07:56:36.175Z,33.10
2023-03-22T08:00:36.652Z,33.00
2023-03-22T08:04:36.174Z,32.89
2023-03-22T08:08:37.418Z,32.83
2023-03-22T08:12:36.545Z,32.76
2023-03-22T08:16:37.233Z,32.71
2023-03-22T08:20:37.176Z,32.74
2023-03-22T08:24:37.239Z,32.67
2023-03-22T08:28:37.677Z,32.57
2023-03-22T08:32:37.682Z,32.59
2023-03-22T08:36:37.707Z,32.54
2023-03-22T08:40:37.801Z,32.72
2023-03-22T08:44:37.675Z,32.90
2023-03-22T08:48:37.779Z,33.07
2023-03-22T08:52:37.736Z,33.24
2023-03-22T08:56:37.748Z,32.93
2023-03-22T09:00:48.088Z,32.80
2023-03-22T09:04:37.854Z,32.74
2023-03-22T09:08:37.690Z,32.72
2023-03-22T09:12:37.868Z,32.62
2023-03-22T09:16:37.807Z,32.59
2023-03-22T09:20:37.819Z,32.58
2023-03-22T09:24:37.594Z,32.60
2023-03-22T09:28:37.826Z,32.51
2023-03-22T09:32:38.696Z,32.51
2023-03-22T09:36:37.697Z,32.44
2023-03-22T09:40:37.702Z,32.28
2023-03-22T09:44:38.228Z,32.33
2023-03-22T09:48:38.214Z,32.30
2023-03-22T09:52:38.206Z,32.27
2023-03-22T09:56:38.227Z,32.15
2023-03-22T10:04:38.234Z,31.98
2023-03-22T11:40:40.035Z,32.23
2023-03-22T11:44:39.856Z,31.99
2023-03-22T11:48:40.379Z,30.82
2023-03-22T11:52:40.285Z,29.98
2023-03-22T11:56:40.762Z,29.90
2023-03-22T12:00:40.765Z,29.27
2023-03-22T12:04:40.786Z,29.56
2023-03-22T12:08:41.288Z,30.10
2023-03-22T12:12:41.286Z,30.61
2023-03-22T12:16:41.055Z,30.51
2023-03-22T12:20:41.625Z,30.76
2023-03-22T12:24:42.801Z,31.32
2023-03-22T12:28:41.276Z,31.64
2023-03-22T12:32:41.295Z,32.10
2023-03-22T12:36:41.276Z,32.70
2023-03-22T12:40:41.489Z,33.18
2023-03-22T12:44:41.289Z,33.60
2023-03-22T12:48:40.966Z,34.11
2023-03-22T12:52:45.741Z,34.18
2023-03-22T12:56:41.314Z,34.64
2023-03-22T13:00:41.671Z,35.18
2023-03-22T13:04:40.788Z,35.67
2023-03-22T13:08:40.712Z,34.40
2023-03-22T13:12:40.902Z,34.83
2023-03-22T13:16:40.839Z,35.23
2023-03-22T13:20:41.287Z,35.77
2023-03-22T13:24:40.797Z,36.17
2023-03-22T13:28:40.822Z,36.15
2023-03-22T13:36:40.810Z,36.65
2023-03-22T13:40:41.028Z,36.92
2023-03-22T13:44:43.452Z,37.17
2023-03-22T13:48:40.933Z,37.47
2023-03-22T13:52:40.823Z,37.86
2023-03-22T13:56:40.321Z,37.97
2023-03-22T14:00:40.557Z,37.29
2023-03-22T14:04:40.319Z,37.37
2023-03-22T14:08:40.327Z,37.00
2023-03-22T14:12:40.330Z,36.66
2023-03-22T14:16:40.063Z,36.01
2023-03-22T14:20:40.848Z,35.26
2023-03-22T21:56:47.649Z,31.21
2023-03-22T22:00:48.794Z,31.18
2023-03-22T22:04:48.830Z,31.09
2023-03-22T22:08:48.960Z,31.03
2023-03-22T22:12:49.097Z,31.02
2023-03-22T22:16:49.251Z,31.00
2023-03-22T22:20:49.452Z,30.95
2023-03-22T22:24:49.683Z,30.95
2023-03-22T22:56:49.788Z,30.64
